Time;durP1;ratioP1;P1;durP2;ratioP2;P2;SDS_P1;SDS_P2;PMS_P1;PMS_P2;Temp;Humidity;BMP_temperature;BMP_pressure;BME280_temperature;BME280_humidity;BME280_pressure;Samples;Min_cycle;Max_cycle;Signal;HPM_P1;HPM_P2
2023/01/06 00:03:04;;;;;;;7.87;4.70;;;2.10;99.90;;;;;;10521854;28;20258;-77
2023/01/06 00:08:25;;;;;;;7.20;3.63;;;2.10;99.90;;;;;;10506348;28;20191;-76
2023/01/06 00:13:47;;;;;;;5.87;3.10;;;2.10;99.90;;;;;;10521411;28;20242;-75
2023/01/06 00:19:10;;;;;;;5.80;3.53;;;2.10;99.90;;;;;;10521070;28;20197;-77
2023/01/06 00:24:32;;;;;;;8.40;3.90;;;2.10;99.90;;;;;;10520946;28;20256;-79
2023/01/06 00:29:53;;;;;;;8.80;4.00;;;2.10;99.90;;;;;;10500742;28;20222;-76
2023/01/06 00:35:14;;;;;;;8.57;5.03;;;2.10;99.90;;;;;;10505680;28;20450;-80
2023/01/06 00:40:36;;;;;;;13.27;6.50;;;2.20;99.90;;;;;;10520009;28;20532;-79
2023/01/06 00:46:00;;;;;;;21.73;8.83;;;2.10;99.90;;;;;;10504974;28;20243;-78
2023/01/06 00:51:22;;;;;;;13.77;6.47;;;2.00;99.90;;;;;;10519933;28;20218;-77
2023/01/06 00:56:48;;;;;;;7.97;3.70;;;2.10;99.90;;;;;;10505159;28;20190;-77
2023/01/06 01:02:09;;;;;;;6.20;3.33;;;2.10;99.90;;;;;;10519892;28;20195;-77
2023/01/06 01:07:31;;;;;;;6.00;3.70;;;2.10;99.90;;;;;;10519799;28;20228;-79
2023/01/06 01:12:52;;;;;;;6.70;3.23;;;2.00;99.90;;;;;;10519623;28;20582;-78
2023/01/06 01:18:13;;;;;;;6.07;2.40;;;2.00;99.90;;;;;;10519342;28;20183;-79
2023/01/06 01:29:27;;;;;;;7.03;3.40;;;1.90;99.90;;;;;;10216225;23;20244;-78
2023/01/06 01:34:49;;;;;;;6.73;3.10;;;1.90;99.90;;;;;;10169823;29;20203;-78
2023/01/06 01:40:10;;;;;;;6.57;2.90;;;1.90;99.90;;;;;;10181457;29;20283;-79
2023/01/06 01:45:31;;;;;;;7.60;2.83;;;1.80;99.90;;;;;;10166293;29;20198;-79
2023/01/06 01:50:55;;;;;;;6.23;2.77;;;1.70;99.90;;;;;;10155692;29;20525;-83
2023/01/06 01:56:22;;;;;;;9.40;5.27;;;1.70;99.90;;;;;;10162937;29;20224;-81
2023/01/06 02:01:45;;;;;;;11.00;6.67;;;1.80;99.90;;;;;;10186970;29;20520;-80
2023/01/06 02:07:07;;;;;;;7.00;5.23;;;1.80;99.90;;;;;;10202505;29;20203;-82
2023/01/06 02:12:29;;;;;;;6.90;3.67;;;1.80;99.90;;;;;;10201492;29;20309;-79
2023/01/06 02:18:14;;;;;;;6.30;2.67;;;1.80;99.90;;;;;;10201750;29;20524;-78
2023/01/06 02:23:45;;;;;;;5.20;2.03;;;1.70;99.90;;;;;;10214564;29;20442;-78
2023/01/06 02:29:40;;;;;;;5.83;2.00;;;1.50;99.90;;;;;;10214697;29;20474;-82
2023/01/06 02:35:07;;;;;;;3.27;1.70;;;1.50;99.90;;;;;;10201230;29;20200;-82
2023/01/06 02:40:47;;;;;;;3.97;2.30;;;1.50;99.90;;;;;;10214335;29;20210;-79
2023/01/06 02:46:23;;;;;;;11.13;4.87;;;1.50;99.90;;;;;;10222395;29;20191;-79
2023/01/06 02:52:03;;;;;;;18.00;4.70;;;1.50;99.90;;;;;;10208768;29;20235;-82
2023/01/06 02:57:52;;;;;;;11.37;3.10;;;1.30;99.90;;;;;;10200371;29;20208;-81
2023/01/06 03:03:17;;;;;;;9.60;3.20;;;1.30;99.90;;;;;;10157063;29;20207;-82
2023/01/06 03:08:41;;;;;;;7.23;2.90;;;1.20;99.90;;;;;;10173813;29;20205;-82
2023/01/06 03:14:22;;;;;;;5.10;2.63;;;1.30;99.90;;;;;;10173975;29;20243;-82
2023/01/06 03:19:43;;;;;;;7.07;3.60;;;1.20;99.90;;;;;;10146988;29;20204;-81
2023/01/06 03:25:07;;;;;;;9.30;4.63;;;1.30;99.90;;;;;;10147056;29;20244;-84
2023/01/06 03:30:54;;;;;;;4.93;2.17;;;1.40;99.90;;;;;;10191432;29;20230;-84
2023/01/06 03:36:29;;;;;;;5.57;2.60;;;1.40;18.80;;;;;;10187979;29;20205;-79
2023/01/06 03:48:06;;;;;;;3.40;2.13;;;1.30;1.00;;;;;;10212007;29;20527;-81
2023/01/06 03:53:40;;;;;;;3.97;1.70;;;1.30;1.00;;;;;;10198315;29;20254;-80
2023/01/06 03:59:11;;;;;;;4.50;2.10;;;1.20;99.90;;;;;;10184707;29;20522;-78
2023/01/06 04:04:33;;;;;;;4.27;2.17;;;1.20;99.90;;;;;;10197529;29;20207;-82
2023/01/06 04:09:55;;;;;;;4.63;1.83;;;1.10;36.50;;;;;;10197793;29;20222;-78
2023/01/06 04:15:22;;;;;;;3.43;1.67;;;1.10;1.00;;;;;;10197664;29;20502;-83
2023/01/06 04:20:46;;;;;;;6.53;2.40;;;1.00;1.00;;;;;;10196918;29;20210;-81
2023/01/06 04:26:12;;;;;;;4.33;2.13;;;0.90;1.00;;;;;;10196608;29;20311;-82
2023/01/06 04:31:39;;;;;;;3.67;1.97;;;0.90;1.00;;;;;;10173380;29;20458;-81
2023/01/06 04:37:01;;;;;;;4.73;2.33;;;0.90;1.00;;;;;;10158478;29;20239;-82
2023/01/06 04:42:21;;;;;;;12.07;5.33;;;0.90;99.90;;;;;;10157816;29;20204;-80
2023/01/06 04:47:43;;;;;;;7.10;4.00;;;0.90;99.90;;;;;;10170477;29;20268;-82
2023/01/06 04:53:06;;;;;;;8.33;4.20;;;0.90;1.00;;;;;;10162560;29;20244;-80
2023/01/06 04:58:28;;;;;;;10.63;4.37;;;1.00;1.00;;;;;;10175620;29;20232;-80
2023/01/06 05:03:49;;;;;;;9.07;3.77;;;1.00;1.00;;;;;;10179504;29;20199;-80
2023/01/06 05:09:10;;;;;;;8.07;3.40;;;1.00;1.00;;;;;;10159156;29;20282;-81
2023/01/06 05:14:31;;;;;;;5.00;2.73;;;1.00;1.00;;;;;;10156886;29;20237;-79
2023/01/06 05:19:53;;;;;;;10.23;4.50;;;1.00;1.00;;;;;;10156105;29;20204;-79
2023/01/06 05:25:15;;;;;;;8.03;3.23;;;1.00;99.90;;;;;;10156369;29;20240;-80
2023/01/06 05:30:36;;;;;;;4.53;2.40;;;0.90;99.90;;;;;;10171101;29;20238;-79
2023/01/06 05:36:03;;;;;;;8.37;3.90;;;0.90;99.90;;;;;;10164482;29;20199;-82
2023/01/06 05:41:24;;;;;;;10.17;4.60;;;0.90;1.00;;;;;;10151057;29;20218;-81
2023/01/06 05:46:45;;;;;;;11.03;5.13;;;0.90;99.90;;;;;;10178010;29;20569;-80
2023/01/06 05:52:07;;;;;;;7.37;3.17;;;0.90;1.00;;;;;;10183666;29;20422;-78
2023/01/06 05:57:31;;;;;;;4.87;2.30;;;0.90;99.90;;;;;;10197986;29;20204;-79
2023/01/06 06:02:52;;;;;;;6.27;2.90;;;0.80;99.90;;;;;;10180542;29;20371;-79
2023/01/06 06:08:13;;;;;;;11.30;5.47;;;0.70;99.90;;;;;;10163648;29;20200;-78
2023/01/06 06:13:35;;;;;;;7.73;3.60;;;0.80;99.90;;;;;;10149269;29;20236;-79
2023/01/06 06:18:57;;;;;;;19.60;12.83;;;0.80;1.00;;;;;;10178007;29;20237;-79
2023/01/06 06:24:18;;;;;;;15.10;9.87;;;0.70;99.90;;;;;;10175730;29;20256;-79
2023/01/06 06:29:39;;;;;;;23.57;7.97;;;0.80;1.00;;;;;;10187559;29;20208;-80
2023/01/06 06:35:00;;;;;;;16.10;7.07;;;0.80;1.00;;;;;;10203283;29;20461;-79
2023/01/06 06:40:21;;;;;;;9.83;4.67;;;0.70;99.90;;;;;;10213214;29;20532;-82
2023/01/06 06:45:47;;;;;;;8.83;4.27;;;0.70;1.00;;;;;;10200270;29;20250;-78
2023/01/06 06:51:10;;;;;;;11.97;5.50;;;0.70;99.90;;;;;;10214205;29;20223;-79
2023/01/06 06:56:32;;;;;;;21.57;8.67;;;0.70;43.00;;;;;;10200063;29;20287;-79
2023/01/06 07:01:53;;;;;;;22.37;10.67;;;0.70;99.90;;;;;;10188882;29;20581;-78
2023/01/06 07:07:14;;;;;;;14.00;6.97;;;0.70;1.00;;;;;;10202749;29;20197;-79
2023/01/06 07:12:36;;;;;;;11.57;6.00;;;0.70;1.00;;;;;;10201323;29;20302;-81
2023/01/06 07:18:02;;;;;;;10.80;5.00;;;0.60;23.80;;;;;;10199675;29;20195;-78
2023/01/06 07:23:23;;;;;;;9.83;5.30;;;0.70;1.00;;;;;;10186129;29;20208;-79
2023/01/06 07:28:44;;;;;;;9.67;5.03;;;0.70;1.00;;;;;;10198327;29;20304;-79
2023/01/06 07:34:06;;;;;;;8.23;4.10;;;0.60;99.90;;;;;;10185169;29;20239;-79
2023/01/06 07:39:27;;;;;;;7.53;4.00;;;0.60;1.00;;;;;;10201285;29;20203;-77
2023/01/06 07:44:48;;;;;;;11.30;5.17;;;0.60;1.00;;;;;;10184962;29;20204;-78
2023/01/06 07:50:09;;;;;;;7.77;4.30;;;0.50;1.00;;;;;;10198049;29;20255;-78
2023/01/06 07:55:31;;;;;;;11.27;4.93;;;0.50;1.00;;;;;;10184746;29;20211;-81
2023/01/06 08:00:52;;;;;;;15.33;6.23;;;0.50;1.00;;;;;;10197438;29;20258;-78
2023/01/06 08:06:13;;;;;;;10.63;4.93;;;0.50;1.00;;;;;;10211295;29;20486;-81
2023/01/06 08:11:34;;;;;;;8.67;5.37;;;0.50;1.00;;;;;;10210770;29;20233;-82
2023/01/06 08:16:56;;;;;;;21.90;10.63;;;0.40;1.00;;;;;;10210850;29;20389;-79
2023/01/06 08:22:17;;;;;;;29.83;15.67;;;0.50;99.90;;;;;;10197052;29;20213;-82
2023/01/06 08:27:38;;;;;;;27.77;11.87;;;0.40;1.00;;;;;;10196224;29;20282;-78
2023/01/06 08:33:00;;;;;;;14.10;5.83;;;0.40;1.00;;;;;;10196634;29;20234;-79
2023/01/06 08:38:21;;;;;;;7.97;4.73;;;0.40;1.00;;;;;;10196639;29;20434;-82
2023/01/06 08:43:44;;;;;;;10.00;5.03;;;0.40;99.90;;;;;;10196429;29;20205;-81
2023/01/06 08:49:05;;;;;;;9.97;5.17;;;0.50;1.00;;;;;;10183408;29;20252;-78
2023/01/06 08:54:28;;;;;;;14.17;5.73;;;0.60;1.00;;;;;;10195776;29;20233;-79
2023/01/06 08:59:49;;;;;;;14.63;7.00;;;0.50;1.00;;;;;;10196141;29;20545;-78
2023/01/06 09:05:12;;;;;;;18.63;7.20;;;0.50;99.90;;;;;;10195112;29;20229;-78
2023/01/06 09:10:37;;;;;;;14.80;6.33;;;0.50;99.90;;;;;;10196576;29;20199;-80
2023/01/06 09:15:58;;;;;;;10.40;4.60;;;0.50;99.90;;;;;;10197881;29;20207;-78
2023/01/06 09:21:22;;;;;;;7.37;3.80;;;0.60;99.90;;;;;;10182164;29;20281;-78
2023/01/06 09:26:43;;;;;;;9.33;4.03;;;0.60;1.00;;;;;;10195035;29;20575;-78
2023/01/06 09:32:04;;;;;;;19.03;7.37;;;0.60;1.00;;;;;;10181896;29;20303;-78
2023/01/06 09:37:25;;;;;;;11.30;4.70;;;0.40;99.90;;;;;;10196217;29;20209;-79
2023/01/06 09:43:15;;;;;;;9.20;4.37;;;0.40;99.90;;;;;;10181781;29;20210;-78
2023/01/06 09:48:48;;;;;;;12.63;6.00;;;0.30;99.90;;;;;;10196273;29;20226;-80
2023/01/06 09:54:12;;;;;;;11.03;4.70;;;0.30;1.00;;;;;;10181508;29;20464;-80
2023/01/06 09:59:46;;;;;;;9.87;4.63;;;0.30;99.90;;;;;;10181457;29;20233;-78
2023/01/06 10:05:27;;;;;;;10.17;4.60;;;0.40;1.00;;;;;;10184413;29;20249;-79
2023/01/06 10:11:17;;;;;;;21.13;9.37;;;0.40;1.00;;;;;;10194613;29;20195;-81
2023/01/06 10:16:47;;;;;;;20.90;9.43;;;0.40;1.00;;;;;;10197238;29;20331;-79
2023/01/06 10:22:24;;;;;;;11.43;6.87;;;0.40;37.40;;;;;;10182888;29;20216;-80
2023/01/06 10:27:54;;;;;;;27.77;11.67;;;0.40;1.00;;;;;;10198193;29;20334;-78
2023/01/06 10:33:24;;;;;;;24.10;10.93;;;0.50;1.00;;;;;;10185388;29;20242;-78
2023/01/06 10:38:49;;;;;;;27.83;13.90;;;0.50;99.90;;;;;;10198069;29;20218;-78
2023/01/06 10:44:12;;;;;;;12.97;5.60;;;0.60;99.90;;;;;;10183018;29;20583;-78
2023/01/06 10:49:34;;;;;;;14.00;8.33;;;0.60;1.00;;;;;;10195822;29;20266;-78
2023/01/06 10:55:02;;;;;;;20.57;10.43;;;0.70;99.90;;;;;;10161461;29;20234;-79
2023/01/06 11:00:24;;;;;;;16.40;7.73;;;0.70;1.00;;;;;;10148438;29;20214;-79
2023/01/06 11:05:45;;;;;;;17.20;8.43;;;0.80;99.90;;;;;;10148214;29;20235;-78
2023/01/06 11:11:18;;;;;;;44.33;17.17;;;0.60;1.00;;;;;;10170614;29;20219;-79
2023/01/06 11:17:00;;;;;;;18.13;8.83;;;0.40;99.90;;;;;;10189196;29;20275;-80
2023/01/06 11:22:37;;;;;;;16.33;6.43;;;0.40;1.00;;;;;;10161897;29;20222;-79
2023/01/06 11:28:20;;;;;;;12.17;5.77;;;0.50;99.90;;;;;;10171997;29;20563;-79
2023/01/06 11:33:52;;;;;;;13.00;5.80;;;0.50;99.90;;;;;;10199163;29;20237;-79
2023/01/06 11:39:20;;;;;;;11.27;4.53;;;0.50;1.00;;;;;;10213464;29;20281;-79
2023/01/06 11:44:42;;;;;;;10.93;5.20;;;0.40;1.00;;;;;;10199674;29;20201;-79
2023/01/06 11:50:04;;;;;;;13.33;5.70;;;0.50;1.00;;;;;;10186041;29;20256;-82
2023/01/06 11:55:26;;;;;;;20.03;8.63;;;0.40;1.00;;;;;;10198097;29;20234;-78
2023/01/06 12:00:51;;;;;;;33.27;11.00;;;0.50;99.90;;;;;;10200333;29;20198;-77
2023/01/06 12:06:13;;;;;;;35.43;12.63;;;0.60;1.00;;;;;;10197996;29;20576;-79
2023/01/06 12:11:44;;;;;;;16.37;8.40;;;0.70;1.00;;;;;;10211257;29;20226;-80
2023/01/06 12:17:20;;;;;;;13.63;6.27;;;0.70;1.00;;;;;;10184181;29;20457;-79
2023/01/06 12:22:57;;;;;;;20.53;6.70;;;0.50;99.90;;;;;;10197405;29;20277;-78
2023/01/06 12:28:38;;;;;;;12.07;6.70;;;0.40;1.00;;;;;;10196899;29;20248;-81
2023/01/06 12:34:09;;;;;;;12.60;5.70;;;0.30;99.90;;;;;;10196810;29;20230;-78
2023/01/06 12:39:44;;;;;;;12.13;6.10;;;0.20;1.00;;;;;;10195630;29;20210;-78
2023/01/06 12:45:20;;;;;;;10.60;5.70;;;0.20;1.00;;;;;;10195992;29;20207;-79
2023/01/06 12:50:50;;;;;;;15.10;7.97;;;0.20;1.00;;;;;;10195933;29;20209;-81
2023/01/06 12:56:30;;;;;;;13.40;6.70;;;0.10;1.00;;;;;;10198454;29;20442;-82
2023/01/06 13:02:31;;;;;;;20.77;8.37;;;0.10;1.00;;;;;;10211167;29;20202;-81
2023/01/06 13:08:11;;;;;;;22.80;10.17;;;;;;;;;;10185653;29;20209;-79
2023/01/06 13:13:44;;;;;;;18.90;10.73;;;-0.10;6.00;;;;;;10207761;29;20237;-78
2023/01/06 13:19:45;;;;;;;26.67;14.47;;;-0.10;23.50;;;;;;10195297;29;20198;-78
2023/01/06 13:25:34;;;;;;;22.73;11.27;;;-0.20;22.40;;;;;;10196840;29;20244;-79
2023/01/06 13:31:13;;;;;;;23.80;12.53;;;-0.20;29.20;;;;;;10209700;29;20212;-78
2023/01/06 13:37:00;;;;;;;18.17;10.87;;;-0.20;40.20;;;;;;10196751;29;20199;-77
2023/01/06 13:42:40;;;;;;;20.67;9.70;;;-0.30;51.60;;;;;;10208908;29;20228;-79
2023/01/06 13:48:07;;;;;;;21.87;11.83;;;-0.40;43.00;;;;;;10194991;29;20202;-80
2023/01/06 13:53:36;;;;;;;21.20;11.70;;;-0.40;62.00;;;;;;10189065;29;20589;-78
2023/01/06 13:59:18;;;;;;;19.87;11.47;;;-0.40;52.40;;;;;;10189610;29;20230;-78
2023/01/06 14:04:43;;;;;;;18.37;10.23;;;-0.50;59.10;;;;;;10189464;29;20204;-78
2023/01/06 14:10:25;;;;;;;21.83;10.57;;;-0.60;89.80;;;;;;10202236;29;20207;-79
2023/01/06 14:15:54;;;;;;;23.30;11.83;;;-0.70;99.90;;;;;;10202080;29;20228;-78
2023/01/06 14:21:23;;;;;;;21.30;11.57;;;-0.60;99.90;;;;;;10215222;29;20220;-78
2023/01/06 14:26:50;;;;;;;17.20;10.57;;;-0.60;99.90;;;;;;10187751;29;20524;-82
2023/01/06 14:32:15;;;;;;;16.87;9.40;;;-0.60;99.90;;;;;;10201734;29;20248;-81
2023/01/06 14:38:16;;;;;;;21.67;10.37;;;-0.60;99.90;;;;;;10214473;29;20436;-80
2023/01/06 14:43:49;;;;;;;21.20;11.90;;;-0.70;99.90;;;;;;10287841;28;20215;-80
2023/01/06 14:49:24;;;;;;;62.57;28.23;;;-0.70;99.90;;;;;;10317528;28;20196;-81
2023/01/06 14:54:48;;;;;;;35.50;19.30;;;-0.60;99.90;;;;;;10287684;28;20262;-80
2023/01/06 15:00:23;;;;;;;64.80;35.27;;;-0.70;99.90;;;;;;10286487;28;20230;-79
2023/01/06 15:05:44;;;;;;;124.50;54.90;;;-0.70;99.90;;;;;;10287390;28;20211;-79
2023/01/06 15:11:22;;;;;;;160.63;66.00;;;-0.70;99.90;;;;;;10302945;28;20242;-83
2023/01/06 15:16:44;;;;;;;33.43;24.73;;;-0.70;99.90;;;;;;10260155;28;20294;-82
2023/01/06 15:22:07;;;;;;;34.37;24.80;;;-0.60;99.90;;;;;;10186460;29;20279;-80
2023/01/06 15:27:29;;;;;;;32.37;24.70;;;-0.60;99.90;;;;;;10198827;29;20237;-83
2023/01/06 15:32:51;;;;;;;51.83;41.83;;;-0.60;99.90;;;;;;10185758;29;20300;-82
2023/01/06 15:38:21;;;;;;;184.23;128.23;;;-0.50;99.90;;;;;;10194448;29;20267;-79
2023/01/06 15:43:45;;;;;;;163.90;107.83;;;-0.50;99.90;;;;;;10219887;29;20202;-81
2023/01/06 15:49:21;;;;;;;113.50;74.47;;;-0.40;99.90;;;;;;10186688;29;20200;-83
2023/01/06 15:54:45;;;;;;;32.57;21.73;;;-0.40;99.90;;;;;;10185343;29;20237;-85
2023/01/06 16:00:21;;;;;;;37.80;19.73;;;-0.40;99.90;;;;;;10185563;29;20380;-84
2023/01/06 16:05:43;;;;;;;27.33;19.00;;;-0.40;99.90;;;;;;10199464;29;20201;-80
2023/01/06 16:11:14;;;;;;;22.33;13.80;;;-0.30;99.90;;;;;;10213073;29;20223;-80
2023/01/06 16:16:39;;;;;;;25.17;14.20;;;-0.20;99.90;;;;;;10187882;29;20232;-82
2023/01/06 16:22:05;;;;;;;33.87;21.00;;;-0.20;99.90;;;;;;10185468;29;20238;-83
2023/01/06 16:27:27;;;;;;;24.30;14.90;;;-0.10;99.90;;;;;;10198072;29;20301;-79
2023/01/06 16:32:49;;;;;;;57.50;26.43;;;-0.10;99.90;;;;;;10188010;29;20466;-81
2023/01/06 16:38:11;;;;;;;54.60;26.70;;;0.00;99.90;;;;;;10186894;29;20203;-81
2023/01/06 16:43:32;;;;;;;51.67;24.87;;;0.00;99.90;;;;;;10222692;29;20239;-78
2023/01/06 16:48:54;;;;;;;47.67;22.87;;;0.10;99.90;;;;;;10192091;29;20429;-83
2023/01/06 16:54:19;;;;;;;38.60;17.23;;;0.20;99.90;;;;;;10198812;29;20243;-80
2023/01/06 16:59:40;;;;;;;32.93;17.67;;;0.30;99.90;;;;;;10197239;29;20195;-79
2023/01/06 17:05:19;;;;;;;20.47;13.37;;;0.30;99.90;;;;;;10197103;29;20509;-79
2023/01/06 17:10:40;;;;;;;23.20;13.80;;;0.20;99.90;;;;;;10196453;29;20517;-78
2023/01/06 17:16:13;;;;;;;32.73;19.30;;;0.30;99.90;;;;;;10182502;29;20298;-79
2023/01/06 17:21:36;;;;;;;25.30;17.00;;;0.40;99.90;;;;;;10196034;29;20540;-78
2023/01/06 17:27:01;;;;;;;30.07;16.77;;;0.50;99.90;;;;;;10215276;29;20258;-78
2023/01/06 17:32:32;;;;;;;16.80;10.23;;;0.60;99.90;;;;;;10203754;29;20240;-78
2023/01/06 17:37:59;;;;;;;27.73;15.30;;;0.60;99.90;;;;;;10203352;29;20234;-78
2023/01/06 17:43:30;;;;;;;26.70;15.70;;;0.60;99.90;;;;;;10203474;29;20205;-80
2023/01/06 17:49:15;;;;;;;27.90;17.50;;;0.70;99.90;;;;;;10203056;29;20199;-82
2023/01/06 18:00:42;;;;;;;30.37;15.93;;;0.80;99.90;;;;;;10202897;29;20200;-78
2023/01/06 18:06:07;;;;;;;25.13;13.97;;;0.80;99.90;;;;;;10191702;29;20224;-82
2023/01/06 18:11:32;;;;;;;46.53;27.17;;;0.90;99.90;;;;;;10203085;29;20206;-79
2023/01/06 18:16:56;;;;;;;44.13;27.63;;;1.00;99.90;;;;;;10216301;29;20254;-82
2023/01/06 18:22:21;;;;;;;54.93;27.10;;;1.00;99.90;;;;;;10188992;29;20211;-81
2023/01/06 18:27:42;;;;;;;50.37;25.30;;;1.10;99.90;;;;;;10202243;29;20301;-78
2023/01/06 18:33:14;;;;;;;36.33;17.50;;;1.10;99.90;;;;;;10201999;29;20238;-82
2023/01/06 18:38:35;;;;;;;40.50;22.50;;;1.20;99.90;;;;;;10201712;29;20275;-82
2023/01/06 18:43:56;;;;;;;60.20;22.03;;;1.20;99.90;;;;;;10201746;29;20259;-83
2023/01/06 18:49:18;;;;;;;64.83;21.93;;;1.20;99.90;;;;;;10201100;29;20203;-78
2023/01/06 18:54:39;;;;;;;94.87;25.77;;;1.30;99.90;;;;;;10203635;29;20307;-78
2023/01/06 19:00:29;;;;;;;51.53;20.87;;;1.30;99.90;;;;;;10188467;29;20234;-84
2023/01/06 19:05:57;;;;;;;36.17;18.97;;;1.40;99.90;;;;;;10213891;29;20254;-79
2023/01/06 19:11:22;;;;;;;27.77;14.50;;;1.40;99.90;;;;;;10186640;29;20201;-78
2023/01/06 19:16:55;;;;;;;117.77;40.73;;;1.50;99.90;;;;;;10199499;29;20227;-78
2023/01/06 19:22:28;;;;;;;84.33;29.73;;;1.50;99.90;;;;;;10186165;29;20231;-78
2023/01/06 19:27:52;;;;;;;44.77;21.37;;;1.50;99.90;;;;;;10185755;29;20265;-82
2023/01/06 19:33:45;;;;;;;66.23;25.90;;;1.50;99.90;;;;;;10185834;29;20228;-82
2023/01/06 19:39:26;;;;;;;65.23;29.83;;;1.50;99.90;;;;;;10188100;29;20232;-82
2023/01/06 19:44:52;;;;;;;43.70;23.57;;;1.50;99.90;;;;;;10173554;29;20291;-79
2023/01/06 19:50:24;;;;;;;41.80;18.83;;;1.50;99.90;;;;;;10199085;29;20197;-81
2023/01/06 19:55:45;;;;;;;34.47;18.73;;;1.50;99.90;;;;;;10201200;29;20483;-78
2023/01/06 20:01:12;;;;;;;41.90;20.03;;;1.60;99.90;;;;;;10185447;29;20562;-85
2023/01/06 20:06:34;;;;;;;35.50;16.83;;;1.60;99.90;;;;;;10185700;29;20501;-81
2023/01/06 20:11:55;;;;;;;31.57;16.77;;;1.70;99.90;;;;;;10200287;29;20214;-83
2023/01/06 20:17:16;;;;;;;27.03;16.20;;;1.70;99.90;;;;;;10200655;29;20319;-80
2023/01/06 20:22:37;;;;;;;44.20;23.30;;;1.70;99.90;;;;;;10211378;29;20201;-83
2023/01/06 20:27:58;;;;;;;35.33;23.73;;;1.70;99.90;;;;;;10219784;29;20255;-80
2023/01/06 20:33:20;;;;;;;32.77;18.90;;;1.60;99.90;;;;;;10209517;29;20219;-81
2023/01/06 20:38:44;;;;;;;55.00;24.90;;;1.60;99.90;;;;;;10212478;29;20486;-79
2023/01/06 20:44:05;;;;;;;78.20;38.37;;;1.70;99.90;;;;;;10196980;29;20246;-84
2023/01/06 20:49:27;;;;;;;65.63;33.60;;;1.70;99.90;;;;;;10210389;29;20427;-80
2023/01/06 20:54:48;;;;;;;66.43;34.03;;;1.70;99.90;;;;;;10196073;29;20232;-80
2023/01/06 21:00:11;;;;;;;128.17;47.63;;;1.70;99.90;;;;;;10195321;29;20408;-77
2023/01/06 21:05:32;;;;;;;69.97;28.63;;;1.80;99.90;;;;;;10197292;29;20244;-80
2023/01/06 21:10:54;;;;;;;48.67;22.73;;;1.80;99.90;;;;;;10209599;29;20199;-80
2023/01/06 21:16:15;;;;;;;28.53;16.10;;;1.80;99.90;;;;;;10195800;29;20474;-79
2023/01/06 21:21:36;;;;;;;23.27;14.03;;;1.70;99.90;;;;;;10197332;29;20196;-81
2023/01/06 21:26:57;;;;;;;31.07;17.30;;;1.70;99.90;;;;;;10215635;29;20232;-79
2023/01/06 21:32:19;;;;;;;47.03;20.70;;;1.70;99.90;;;;;;10215534;29;20275;-78
2023/01/06 21:37:40;;;;;;;53.80;23.43;;;1.70;99.90;;;;;;10190917;29;20212;-81
2023/01/06 21:43:07;;;;;;;64.13;28.57;;;1.60;99.90;;;;;;10185190;29;20207;-81
2023/01/06 21:48:28;;;;;;;42.17;19.40;;;1.60;99.90;;;;;;10186196;29;20209;-78
2023/01/06 21:53:49;;;;;;;26.67;14.33;;;1.60;99.90;;;;;;10185265;29;20258;-79
2023/01/06 21:59:10;;;;;;;27.70;14.97;;;1.50;99.90;;;;;;10206022;29;20201;-80
2023/01/06 22:04:32;;;;;;;20.63;12.90;;;1.50;99.90;;;;;;10195391;29;20231;-78
2023/01/06 22:09:55;;;;;;;19.63;12.63;;;1.40;99.90;;;;;;10184404;29;20497;-82
2023/01/06 22:15:17;;;;;;;21.50;12.80;;;1.40;99.90;;;;;;10216522;29;20490;-82
2023/01/06 22:20:38;;;;;;;26.07;13.87;;;1.30;99.90;;;;;;10203271;29;20232;-82
2023/01/06 22:25:59;;;;;;;21.97;12.60;;;1.30;99.90;;;;;;10202385;29;20244;-82
2023/01/06 22:31:20;;;;;;;22.77;12.33;;;1.30;99.90;;;;;;10164513;29;20398;-79
2023/01/06 22:36:41;;;;;;;17.93;11.03;;;1.30;99.90;;;;;;10165193;29;20308;-78
2023/01/06 22:42:03;;;;;;;22.00;12.30;;;1.20;99.90;;;;;;10162695;29;20244;-82
2023/01/06 22:47:25;;;;;;;21.67;13.17;;;1.10;99.90;;;;;;10164373;29;20212;-78
2023/01/06 22:52:46;;;;;;;27.23;15.07;;;1.10;99.90;;;;;;10164471;29;20512;-80
2023/01/06 22:58:07;;;;;;;26.53;15.13;;;1.20;99.90;;;;;;10164047;29;20245;-82
2023/01/06 23:03:28;;;;;;;22.50;13.07;;;1.20;99.90;;;;;;10164046;29;20210;-81
2023/01/06 23:08:50;;;;;;;19.67;11.07;;;1.30;99.90;;;;;;10161454;29;20227;-81
2023/01/06 23:14:20;;;;;;;15.63;9.40;;;1.40;99.90;;;;;;10175253;29;20237;-80
2023/01/06 23:19:41;;;;;;;14.50;9.40;;;1.60;99.90;;;;;;10147545;29;20200;-79
2023/01/06 23:25:02;;;;;;;12.53;8.23;;;1.80;99.90;;;;;;10175379;29;20315;-82
2023/01/06 23:30:24;;;;;;;16.30;8.47;;;1.90;99.90;;;;;;10165733;29;20204;-79
2023/01/06 23:35:45;;;;;;;17.00;10.47;;;2.00;99.90;;;;;;10175745;29;20235;-80
2023/01/06 23:41:13;;;;;;;19.73;12.57;;;2.10;99.90;;;;;;10160635;29;20189;-79
2023/01/06 23:46:37;;;;;;;36.47;17.40;;;2.10;99.90;;;;;;10172828;29;20204;-77
2023/01/06 23:51:58;;;;;;;21.50;12.00;;;2.00;99.90;;;;;;10160037;29;20300;-83
2023/01/06 23:57:19;;;;;;;27.03;13.33;;;2.10;99.90;;;;;;10172468;29;20418;-80
